Time;durP1;ratioP1;P1;durP2;ratioP2;P2;SDS_P1;SDS_P2;PMS_P1;PMS_P2;Temp;Humidity;BMP_temperature;BMP_pressure;BME280_temperature;BME280_humidity;BME280_pressure;Samples;Min_cycle;Max_cycle;Signal;HPM_P1;HPM_P2
2021/07/23 00:00:28;;;;;;;12.80;7.55;;;19.80;77.50;;;;;;5096026;28;20034;-74
2021/07/23 00:02:53;;;;;;;11.50;6.63;;;19.80;78.00;;;;;;5096556;28;20380;-75
2021/07/23 00:05:19;;;;;;;12.73;7.10;;;19.80;78.20;;;;;;5114160;28;20026;-75
2021/07/23 00:07:45;;;;;;;14.00;6.47;;;19.80;78.00;;;;;;5114392;28;20083;-75
2021/07/23 00:10:11;;;;;;;11.23;6.32;;;19.80;77.30;;;;;;5096225;28;20032;-75
2021/07/23 00:12:36;;;;;;;13.80;7.03;;;19.80;78.00;;;;;;5095830;28;20039;-75
2021/07/23 00:15:03;;;;;;;11.77;7.25;;;19.80;78.10;;;;;;5096248;28;20019;-75
2021/07/23 00:17:28;;;;;;;13.13;6.90;;;19.80;78.00;;;;;;5095633;28;20123;-75
2021/07/23 00:19:54;;;;;;;11.43;6.80;;;19.80;77.80;;;;;;5096234;28;20062;-75
2021/07/23 00:22:20;;;;;;;12.18;7.25;;;19.70;78.30;;;;;;5113872;28;20042;-75
2021/07/23 00:24:45;;;;;;;11.15;7.00;;;19.70;79.10;;;;;;5096138;28;20380;-75
2021/07/23 00:27:11;;;;;;;15.35;7.50;;;19.60;79.30;;;;;;5096042;28;20020;-75
2021/07/23 00:29:36;;;;;;;12.43;6.93;;;19.70;79.40;;;;;;5113432;28;20114;-75
2021/07/23 00:32:02;;;;;;;13.82;7.63;;;19.60;79.30;;;;;;5095906;28;20461;-74
2021/07/23 00:34:28;;;;;;;12.27;6.68;;;19.50;79.70;;;;;;5113893;28;20024;-75
2021/07/23 00:36:53;;;;;;;11.30;6.50;;;19.40;79.80;;;;;;5114223;28;20032;-74
2021/07/23 00:39:19;;;;;;;13.38;7.20;;;19.40;79.80;;;;;;5095398;28;20024;-75
2021/07/23 00:41:44;;;;;;;11.57;6.18;;;19.50;79.50;;;;;;5095794;28;20380;-75
2021/07/23 00:44:10;;;;;;;13.40;6.57;;;19.50;79.40;;;;;;5095736;28;20118;-75
2021/07/23 00:46:37;;;;;;;13.52;6.70;;;19.40;80.00;;;;;;5113470;28;20094;-74
2021/07/23 00:49:03;;;;;;;11.48;7.28;;;19.30;80.20;;;;;;5095504;28;20463;-75
2021/07/23 00:51:29;;;;;;;13.27;7.00;;;19.30;80.40;;;;;;5095081;28;20058;-75
2021/07/23 00:53:55;;;;;;;11.70;7.13;;;19.30;80.60;;;;;;5095660;28;20491;-75
2021/07/23 00:56:21;;;;;;;13.77;6.88;;;19.30;80.50;;;;;;5095037;28;20034;-75
2021/07/23 00:58:47;;;;;;;11.25;7.00;;;19.40;80.70;;;;;;5095456;28;20019;-75
2021/07/23 01:01:13;;;;;;;10.73;6.25;;;19.30;81.00;;;;;;5095385;28;20031;-74
2021/07/23 01:03:38;;;;;;;10.30;6.65;;;19.30;80.70;;;;;;5113561;28;20453;-74
2021/07/23 01:06:04;;;;;;;11.13;7.05;;;19.20;80.90;;;;;;5095333;28;20110;-75
2021/07/23 01:08:30;;;;;;;14.73;7.55;;;19.20;81.00;;;;;;5112474;28;20062;-74
2021/07/23 01:10:55;;;;;;;15.25;7.47;;;19.20;81.00;;;;;;5095303;28;20122;-74
2021/07/23 01:13:21;;;;;;;11.32;6.95;;;19.20;81.20;;;;;;5112916;28;20081;-75
2021/07/23 01:15:47;;;;;;;13.20;7.40;;;19.20;81.50;;;;;;5113205;28;20062;-75
2021/07/23 01:18:14;;;;;;;14.02;6.72;;;19.10;81.70;;;;;;5095189;28;20023;-75
2021/07/23 01:20:43;;;;;;;13.77;6.35;;;19.10;81.70;;;;;;5113161;28;20502;-75
2021/07/23 01:23:10;;;;;;;13.63;7.28;;;19.10;81.80;;;;;;5095171;28;20566;-75
2021/07/23 01:25:36;;;;;;;11.23;6.60;;;19.00;81.80;;;;;;5094554;28;20438;-75
2021/07/23 01:28:04;;;;;;;13.13;7.45;;;19.00;82.10;;;;;;5095092;28;20031;-75
2021/07/23 01:30:29;;;;;;;13.25;6.75;;;19.00;81.90;;;;;;5094501;28;20041;-75
2021/07/23 01:32:55;;;;;;;13.35;6.88;;;18.90;82.20;;;;;;5113253;28;20028;-74
2021/07/23 01:35:22;;;;;;;14.07;7.20;;;19.00;82.20;;;;;;5094348;28;20030;-74
2021/07/23 01:37:48;;;;;;;16.90;7.60;;;18.90;82.00;;;;;;5094722;28;20051;-75
2021/07/23 01:40:15;;;;;;;14.18;6.43;;;18.90;82.20;;;;;;5094920;28;20074;-74
2021/07/23 01:42:41;;;;;;;14.85;7.35;;;18.90;82.20;;;;;;5094390;28;20028;-74
2021/07/23 01:45:08;;;;;;;12.57;7.07;;;18.90;82.70;;;;;;5094996;28;20387;-75
2021/07/23 01:47:33;;;;;;;12.90;7.15;;;18.90;82.80;;;;;;5094291;28;20361;-75
2021/07/23 01:49:59;;;;;;;15.38;6.97;;;18.80;82.80;;;;;;5113202;28;20034;-75
2021/07/23 01:52:25;;;;;;;14.02;6.72;;;18.70;83.40;;;;;;5094422;28;20023;-76
2021/07/23 01:54:51;;;;;;;12.13;6.85;;;18.60;83.50;;;;;;5113003;28;20015;-75
2021/07/23 01:57:17;;;;;;;12.05;6.50;;;18.60;83.50;;;;;;5094780;28;20487;-75
2021/07/23 01:59:43;;;;;;;10.73;6.57;;;18.60;83.20;;;;;;5112496;28;20028;-76
2021/07/23 02:02:09;;;;;;;12.13;7.50;;;18.60;83.40;;;;;;5112961;28;20024;-75
2021/07/23 02:04:35;;;;;;;13.25;7.30;;;18.50;83.20;;;;;;5093842;28;20422;-74
2021/07/23 02:07:01;;;;;;;15.65;7.38;;;18.50;83.40;;;;;;5094302;28;20047;-74
2021/07/23 02:09:27;;;;;;;11.32;6.72;;;18.50;84.00;;;;;;5094311;28;20040;-74
2021/07/23 02:11:53;;;;;;;11.30;7.38;;;18.40;84.10;;;;;;5094623;28;20475;-74
2021/07/23 02:14:19;;;;;;;12.05;7.05;;;18.30;84.20;;;;;;5094711;28;20453;-74
2021/07/23 02:16:44;;;;;;;13.82;6.95;;;18.20;84.30;;;;;;5112380;28;20066;-75
2021/07/23 02:19:10;;;;;;;13.30;7.25;;;18.30;84.20;;;;;;5095934;28;20024;-74
2021/07/23 02:21:36;;;;;;;12.77;7.15;;;18.20;84.30;;;;;;5116279;28;20520;-75
2021/07/23 02:24:03;;;;;;;10.48;6.72;;;18.30;84.00;;;;;;5098526;28;20380;-74
2021/07/23 02:26:29;;;;;;;10.55;6.60;;;18.30;84.20;;;;;;5115976;28;20032;-75
2021/07/23 02:28:55;;;;;;;12.15;7.18;;;18.20;84.40;;;;;;5098125;28;20031;-74
2021/07/23 02:31:20;;;;;;;11.75;6.70;;;18.20;84.20;;;;;;5098175;28;20126;-75
2021/07/23 02:33:46;;;;;;;13.15;7.32;;;18.20;84.90;;;;;;5097735;28;20349;-75
2021/07/23 02:36:12;;;;;;;12.40;6.85;;;18.20;85.10;;;;;;5116487;28;20475;-75
2021/07/23 02:38:38;;;;;;;11.50;6.53;;;18.00;85.50;;;;;;5097513;28;20035;-75
2021/07/23 02:41:05;;;;;;;11.63;6.75;;;18.00;85.40;;;;;;5116356;28;20028;-75
2021/07/23 02:43:30;;;;;;;13.40;7.50;;;17.90;85.60;;;;;;5097535;28;20106;-75
2021/07/23 02:45:56;;;;;;;14.27;6.68;;;17.90;85.40;;;;;;5098269;28;20119;-75
2021/07/23 02:48:22;;;;;;;11.27;6.65;;;18.00;85.30;;;;;;5116004;28;20479;-75
2021/07/23 02:50:47;;;;;;;15.02;7.38;;;18.00;84.80;;;;;;5097332;28;20537;-75
2021/07/23 02:53:13;;;;;;;11.35;6.95;;;18.00;84.70;;;;;;5097903;28;20067;-75
2021/07/23 02:55:39;;;;;;;10.07;6.40;;;18.00;84.70;;;;;;5097266;28;20024;-74
2021/07/23 02:58:04;;;;;;;12.70;6.53;;;18.00;84.70;;;;;;5097732;28;20030;-75
2021/07/23 03:00:30;;;;;;;13.15;7.20;;;18.00;84.70;;;;;;5097212;28;20032;-75
2021/07/23 03:02:56;;;;;;;13.32;7.03;;;18.00;84.60;;;;;;5097556;28;20076;-75
2021/07/23 03:05:22;;;;;;;13.43;7.13;;;18.00;84.90;;;;;;5097588;28;20020;-74
2021/07/23 03:07:52;;;;;;;13.48;7.50;;;18.00;84.50;;;;;;5096635;28;20054;-75
2021/07/23 03:10:18;;;;;;;12.82;7.20;;;18.00;84.70;;;;;;5115676;28;20032;-75
2021/07/23 03:12:43;;;;;;;12.40;6.85;;;18.00;84.80;;;;;;5096781;28;20038;-75
2021/07/23 03:15:10;;;;;;;12.35;7.15;;;17.90;85.00;;;;;;5097506;28;20027;-75
2021/07/23 03:17:35;;;;;;;10.98;6.60;;;17.80;85.40;;;;;;5096932;28;20027;-75
2021/07/23 03:20:02;;;;;;;12.73;7.22;;;17.70;86.30;;;;;;5097538;28;20486;-74
2021/07/23 03:22:29;;;;;;;12.77;7.13;;;17.70;86.20;;;;;;5096794;28;20034;-75
2021/07/23 03:24:55;;;;;;;16.05;7.00;;;17.60;86.40;;;;;;5097594;28;20115;-74
2021/07/23 03:27:22;;;;;;;13.80;7.40;;;17.70;86.40;;;;;;5097495;28;20055;-74
2021/07/23 03:29:47;;;;;;;14.15;7.30;;;17.60;86.40;;;;;;5096593;28;20035;-74
2021/07/23 03:32:13;;;;;;;13.65;6.60;;;17.60;86.70;;;;;;5096297;28;20035;-74
2021/07/23 03:34:39;;;;;;;14.05;7.28;;;17.60;86.70;;;;;;5096481;28;20054;-75
2021/07/23 03:37:04;;;;;;;11.85;7.05;;;17.60;86.80;;;;;;5097063;28;20399;-74
2021/07/23 03:39:30;;;;;;;10.30;6.60;;;17.60;86.90;;;;;;5114780;28;20506;-75
2021/07/23 03:41:56;;;;;;;11.68;6.80;;;17.60;86.90;;;;;;5115225;28;20088;-75
2021/07/23 03:44:21;;;;;;;13.10;7.18;;;17.60;86.40;;;;;;5115227;28;20062;-75
2021/07/23 03:46:47;;;;;;;12.15;6.93;;;17.60;86.40;;;;;;5114616;28;20034;-75
2021/07/23 03:49:13;;;;;;;11.25;6.22;;;17.50;86.80;;;;;;5096742;28;20030;-75
2021/07/23 03:51:38;;;;;;;11.75;6.90;;;17.40;86.90;;;;;;5096395;28;20054;-75
2021/07/23 03:54:04;;;;;;;12.23;6.80;;;17.40;86.90;;;;;;5096897;28;20380;-75
2021/07/23 03:56:30;;;;;;;14.95;6.70;;;17.40;86.40;;;;;;5096144;28;20376;-75
2021/07/23 03:58:56;;;;;;;11.60;7.07;;;17.50;86.10;;;;;;5096614;28;20034;-74
2021/07/23 04:01:21;;;;;;;11.80;6.65;;;17.50;85.80;;;;;;5096455;28;20028;-75
2021/07/23 04:03:47;;;;;;;14.55;7.60;;;17.50;86.00;;;;;;5114098;28;20024;-74
2021/07/23 04:06:13;;;;;;;13.32;6.88;;;17.50;85.90;;;;;;5096523;28;20028;-75
2021/07/23 04:08:40;;;;;;;14.02;6.93;;;17.50;86.00;;;;;;5095804;28;20457;-75
2021/07/23 04:11:06;;;;;;;13.57;6.93;;;17.50;86.30;;;;;;5096385;28;20082;-74
2021/07/23 04:13:32;;;;;;;11.23;6.47;;;17.50;86.50;;;;;;5095560;28;20032;-75
2021/07/23 04:15:57;;;;;;;10.98;6.90;;;17.50;86.70;;;;;;5096307;28;20024;-75
2021/07/23 04:18:23;;;;;;;13.60;7.70;;;17.50;86.90;;;;;;5096192;28;20422;-74
2021/07/23 04:20:48;;;;;;;10.65;6.45;;;17.60;86.80;;;;;;5113961;28;20367;-74
2021/07/23 04:23:14;;;;;;;14.35;7.13;;;17.40;87.40;;;;;;5114087;28;20023;-74
2021/07/23 04:25:40;;;;;;;12.20;7.00;;;17.30;87.50;;;;;;5113601;28;20027;-75
2021/07/23 04:28:06;;;;;;;10.88;6.93;;;17.30;87.30;;;;;;5096096;28;20020;-75
2021/07/23 04:30:33;;;;;;;12.82;7.03;;;17.30;87.50;;;;;;5095438;28;20028;-75
2021/07/23 04:32:59;;;;;;;12.48;6.78;;;17.30;87.00;;;;;;5096200;28;20028;-75
2021/07/23 04:35:24;;;;;;;12.77;6.50;;;17.30;86.90;;;;;;5096021;28;20032;-75
2021/07/23 04:37:50;;;;;;;11.75;7.60;;;17.40;86.90;;;;;;5113921;28;20032;-75
2021/07/23 04:40:16;;;;;;;11.63;6.85;;;17.30;87.30;;;;;;5113976;28;20164;-75
2021/07/23 04:42:41;;;;;;;9.80;6.43;;;17.30;87.60;;;;;;5095169;28;20380;-74
2021/07/23 04:45:08;;;;;;;11.52;6.57;;;17.30;88.00;;;;;;5095887;28;20027;-75
2021/07/23 04:47:33;;;;;;;12.90;7.10;;;17.40;88.10;;;;;;5095055;28;20422;-75
2021/07/23 04:50:01;;;;;;;9.13;6.25;;;17.40;87.90;;;;;;5095262;28;20031;-74
2021/07/23 04:52:27;;;;;;;10.32;6.40;;;17.40;88.00;;;;;;5095508;28;20028;-74
2021/07/23 04:54:53;;;;;;;12.18;6.75;;;17.40;88.10;;;;;;5095151;28;20181;-74
2021/07/23 04:57:25;;;;;;;12.55;6.88;;;17.50;88.00;;;;;;5095679;28;20063;-75
2021/07/23 04:59:51;;;;;;;10.93;6.95;;;17.40;88.40;;;;;;5095090;28;20274;-74
2021/07/23 05:02:17;;;;;;;13.82;7.40;;;17.40;88.80;;;;;;5095457;28;20110;-75
2021/07/23 05:04:43;;;;;;;12.55;6.97;;;17.40;89.10;;;;;;5094972;28;20491;-75
2021/07/23 05:07:08;;;;;;;12.90;7.07;;;17.40;88.80;;;;;;5113474;28;20052;-75
2021/07/23 05:09:34;;;;;;;12.70;6.75;;;17.50;88.70;;;;;;5094783;28;20036;-75
2021/07/23 05:12:02;;;;;;;11.77;6.90;;;17.50;88.70;;;;;;5113163;28;20480;-74
2021/07/23 05:14:28;;;;;;;11.90;7.55;;;17.60;88.60;;;;;;5113860;28;20035;-74
2021/07/23 05:16:55;;;;;;;11.18;6.82;;;17.60;88.70;;;;;;5094782;28;20034;-75
2021/07/23 05:19:21;;;;;;;10.38;6.50;;;17.60;89.10;;;;;;5095179;28;20032;-75
2021/07/23 05:21:47;;;;;;;13.90;7.07;;;17.60;89.20;;;;;;5112834;28;20053;-75
2021/07/23 05:24:13;;;;;;;13.38;6.82;;;17.60;89.20;;;;;;5095133;28;20072;-74
2021/07/23 05:26:39;;;;;;;11.98;6.75;;;17.70;89.00;;;;;;5112761;28;20038;-74
2021/07/23 05:29:06;;;;;;;12.25;6.93;;;17.70;88.80;;;;;;5094786;28;20024;-74
2021/07/23 05:31:32;;;;;;;11.98;6.63;;;17.80;89.30;;;;;;5095027;28;20057;-74
2021/07/23 05:33:58;;;;;;;11.20;6.55;;;17.80;88.90;;;;;;5094224;28;20077;-74
2021/07/23 05:36:27;;;;;;;13.27;6.93;;;17.90;88.90;;;;;;5094795;28;20020;-74
2021/07/23 05:38:53;;;;;;;13.70;7.30;;;18.00;88.20;;;;;;5094414;28;20024;-75
2021/07/23 05:41:19;;;;;;;11.43;7.15;;;18.10;88.30;;;;;;5094584;28;20042;-74
2021/07/23 05:43:45;;;;;;;12.68;6.82;;;18.10;87.70;;;;;;5094363;28;20019;-75
2021/07/23 05:46:10;;;;;;;12.18;6.75;;;18.20;87.30;;;;;;5113018;28;20487;-74
2021/07/23 05:48:37;;;;;;;11.45;6.60;;;18.20;87.60;;;;;;5094287;28;20031;-75
2021/07/23 05:51:04;;;;;;;11.95;7.00;;;18.30;86.80;;;;;;5094701;28;20545;-75
2021/07/23 05:53:30;;;;;;;13.38;7.05;;;18.30;86.80;;;;;;5095119;28;20392;-74
2021/07/23 05:55:58;;;;;;;13.73;6.57;;;18.40;86.90;;;;;;5117049;28;20031;-75
2021/07/23 05:58:27;;;;;;;13.38;6.70;;;18.40;86.80;;;;;;5098933;28;20403;-75
2021/07/23 06:00:53;;;;;;;14.38;7.05;;;18.40;86.70;;;;;;5116394;28;20063;-75
2021/07/23 06:03:19;;;;;;;14.13;6.78;;;18.50;87.00;;;;;;5117166;28;20036;-75
2021/07/23 06:05:45;;;;;;;11.82;7.13;;;18.50;86.80;;;;;;5098336;28;20038;-75
2021/07/23 06:08:10;;;;;;;13.55;6.72;;;18.50;86.90;;;;;;5116742;28;20048;-75
2021/07/23 06:10:36;;;;;;;14.00;7.03;;;18.50;86.40;;;;;;5116508;28;20046;-76
2021/07/23 06:13:02;;;;;;;14.45;7.80;;;18.60;86.50;;;;;;5098739;28;20027;-75
2021/07/23 06:15:27;;;;;;;13.75;7.57;;;18.70;86.30;;;;;;5098762;28;20031;-75
2021/07/23 06:17:55;;;;;;;12.38;7.57;;;18.70;85.80;;;;;;5116320;28;20019;-75
2021/07/23 06:20:21;;;;;;;15.43;6.97;;;18.80;85.60;;;;;;5098514;28;20032;-75
2021/07/23 06:22:47;;;;;;;14.13;6.85;;;18.80;85.50;;;;;;5116011;28;20027;-75
2021/07/23 06:25:12;;;;;;;12.63;6.88;;;18.80;85.40;;;;;;5098359;28;20027;-75
2021/07/23 06:27:38;;;;;;;12.43;6.70;;;18.90;85.20;;;;;;5097934;28;20028;-76
2021/07/23 06:30:04;;;;;;;15.68;7.28;;;18.90;85.10;;;;;;5098287;28;20411;-75
2021/07/23 06:32:31;;;;;;;11.25;6.53;;;19.00;84.90;;;;;;5098025;28;20031;-76
2021/07/23 06:34:57;;;;;;;12.85;6.60;;;19.00;84.70;;;;;;5097917;28;20371;-76
2021/07/23 06:37:23;;;;;;;11.50;6.80;;;19.00;84.80;;;;;;5116708;28;20364;-75
2021/07/23 06:39:50;;;;;;;11.43;6.70;;;19.10;84.40;;;;;;5097596;28;20399;-75
2021/07/23 06:42:20;;;;;;;13.13;6.65;;;19.20;84.20;;;;;;5116461;28;20088;-75
2021/07/23 06:44:46;;;;;;;16.10;6.95;;;19.20;84.00;;;;;;5115818;28;20111;-75
2021/07/23 06:47:12;;;;;;;12.20;6.32;;;19.20;84.00;;;;;;5098015;28;20027;-75
2021/07/23 06:49:37;;;;;;;13.07;6.25;;;19.30;83.90;;;;;;5097385;28;20575;-75
2021/07/23 06:52:03;;;;;;;9.75;5.75;;;19.30;83.80;;;;;;5097234;28;20039;-74
2021/07/23 06:54:29;;;;;;;11.52;6.43;;;19.30;83.90;;;;;;5097831;28;20031;-75
2021/07/23 06:56:55;;;;;;;11.93;5.88;;;19.40;83.80;;;;;;5115845;28;20027;-75
2021/07/23 06:59:21;;;;;;;9.63;5.78;;;19.40;84.40;;;;;;5097805;28;20028;-75
2021/07/23 07:01:47;;;;;;;12.23;5.78;;;19.30;84.20;;;;;;5090490;28;20034;-74
2021/07/23 07:04:12;;;;;;;11.85;5.47;;;19.40;84.30;;;;;;5086149;28;20028;-75
2021/07/23 07:06:38;;;;;;;11.52;5.40;;;19.50;83.70;;;;;;5105830;28;20287;-74
2021/07/23 07:09:04;;;;;;;11.10;5.85;;;19.50;82.90;;;;;;5086230;28;20469;-74
2021/07/23 07:11:30;;;;;;;9.48;5.40;;;19.60;82.10;;;;;;5087596;28;20030;-74
2021/07/23 07:13:55;;;;;;;11.20;5.90;;;19.70;81.60;;;;;;5083192;28;20129;-74
2021/07/23 07:16:21;;;;;;;9.65;5.43;;;19.70;81.60;;;;;;5086573;28;20047;-74
2021/07/23 07:18:47;;;;;;;9.07;5.47;;;19.80;80.90;;;;;;5084399;28;20457;-74
2021/07/23 07:21:14;;;;;;;10.27;5.30;;;19.90;81.00;;;;;;5085131;28;20089;-75
2021/07/23 07:23:42;;;;;;;11.68;5.68;;;19.80;80.20;;;;;;5103821;28;20020;-74
2021/07/23 07:26:09;;;;;;;9.25;5.40;;;20.00;80.30;;;;;;5106578;28;20016;-74
2021/07/23 07:28:35;;;;;;;9.25;5.43;;;20.00;79.80;;;;;;5085252;28;20020;-75
2021/07/23 07:31:00;;;;;;;9.88;5.28;;;20.00;80.00;;;;;;5086547;28;20080;-74
2021/07/23 07:33:28;;;;;;;8.60;5.20;;;20.00;80.20;;;;;;5102865;28;20024;-74
2021/07/23 07:35:54;;;;;;;8.50;4.88;;;20.00;80.50;;;;;;5087102;28;20023;-75
2021/07/23 07:38:19;;;;;;;8.80;5.30;;;20.10;79.90;;;;;;5085065;28;20116;-74
2021/07/23 07:40:45;;;;;;;10.63;4.85;;;20.10;80.00;;;;;;5080556;28;20061;-74
2021/07/23 07:43:11;;;;;;;9.60;4.75;;;20.20;80.50;;;;;;5093049;28;20027;-75
2021/07/23 07:45:36;;;;;;;8.82;5.15;;;20.20;81.10;;;;;;5114603;28;20103;-75
2021/07/23 07:48:03;;;;;;;9.77;5.10;;;20.20;81.10;;;;;;5095794;28;20468;-74
2021/07/23 07:50:30;;;;;;;8.20;4.85;;;20.20;80.50;;;;;;5096203;28;20500;-77
2021/07/23 07:52:56;;;;;;;11.13;5.57;;;20.20;80.30;;;;;;5109040;28;20091;-75
2021/07/23 07:55:21;;;;;;;11.55;5.47;;;20.30;80.10;;;;;;5095216;28;20130;-75
2021/07/23 07:57:47;;;;;;;9.15;5.53;;;20.40;79.90;;;;;;5089399;28;20028;-74
2021/07/23 08:00:13;;;;;;;8.40;4.78;;;20.40;80.10;;;;;;5091423;28;20035;-74
2021/07/23 08:02:39;;;;;;;8.73;4.95;;;20.50;78.10;;;;;;5095941;28;20023;-74
2021/07/23 08:05:05;;;;;;;8.95;5.20;;;20.60;78.10;;;;;;5113340;28;20023;-74
2021/07/23 08:07:33;;;;;;;9.60;5.22;;;20.60;77.90;;;;;;5113938;28;20044;-74
2021/07/23 08:10:02;;;;;;;8.20;4.63;;;20.70;77.70;;;;;;5108794;28;20039;-74
2021/07/23 08:12:31;;;;;;;12.05;5.50;;;20.80;76.80;;;;;;5093222;28;20034;-73
2021/07/23 08:14:58;;;;;;;8.52;5.40;;;20.80;76.10;;;;;;5095458;28;20053;-74
2021/07/23 08:17:25;;;;;;;8.95;4.80;;;20.80;76.40;;;;;;5094308;28;20361;-76
2021/07/23 08:19:51;;;;;;;8.18;4.75;;;20.80;76.70;;;;;;5096815;28;20099;-73
2021/07/23 08:22:17;;;;;;;9.10;4.93;;;20.80;78.20;;;;;;5095560;28;20028;-73
2021/07/23 08:24:44;;;;;;;9.85;5.57;;;20.80;78.10;;;;;;5113743;28;20020;-74
2021/07/23 08:27:10;;;;;;;9.32;4.78;;;20.80;77.90;;;;;;5092898;28;20031;-73
2021/07/23 08:29:36;;;;;;;10.25;4.85;;;20.90;77.30;;;;;;5076264;28;20354;-73
2021/07/23 08:32:08;;;;;;;10.40;5.32;;;20.90;77.50;;;;;;5087439;28;20568;-74
2021/07/23 08:34:34;;;;;;;9.10;5.20;;;21.00;76.90;;;;;;5095225;28;20535;-73
2021/07/23 08:37:00;;;;;;;17.77;7.32;;;21.10;76.90;;;;;;5108326;28;20111;-75
2021/07/23 08:39:26;;;;;;;16.48;7.25;;;21.20;76.20;;;;;;5076672;28;20489;-75
2021/07/23 08:41:51;;;;;;;14.07;6.82;;;21.20;75.80;;;;;;5089655;28;20032;-73
2021/07/23 08:44:17;;;;;;;14.82;7.25;;;21.20;76.00;;;;;;5083446;28;20123;-74
2021/07/23 08:46:43;;;;;;;16.10;7.07;;;21.20;76.10;;;;;;5082719;28;20468;-77
2021/07/23 08:49:09;;;;;;;10.88;5.32;;;21.20;76.50;;;;;;5108662;28;20040;-75
2021/07/23 08:51:34;;;;;;;9.93;5.10;;;21.30;75.60;;;;;;5082507;28;20102;-75
2021/07/23 08:54:00;;;;;;;7.63;4.85;;;21.30;75.30;;;;;;5088668;28;20032;-76
2021/07/23 08:56:26;;;;;;;8.68;4.88;;;21.30;75.30;;;;;;5075019;28;20028;-75
2021/07/23 08:58:52;;;;;;;8.77;5.15;;;21.40;74.80;;;;;;5085336;28;20053;-76
2021/07/23 09:01:17;;;;;;;12.52;5.60;;;21.30;73.90;;;;;;5109672;28;20023;-78
2021/07/23 09:03:43;;;;;;;11.10;5.40;;;21.50;74.50;;;;;;5077609;28;20023;-76
2021/07/23 09:06:16;;;;;;;9.73;5.05;;;21.60;74.30;;;;;;5085937;28;20032;-75
2021/07/23 09:08:50;;;;;;;9.07;5.05;;;21.70;75.00;;;;;;5082262;28;20047;-80
2021/07/23 09:11:24;;;;;;;7.72;5.15;;;21.70;73.80;;;;;;5082957;28;20038;-74
2021/07/23 09:13:49;;;;;;;9.70;5.32;;;21.80;73.10;;;;;;5081567;28;20392;-75
2021/07/23 09:16:25;;;;;;;13.85;6.70;;;21.70;73.00;;;;;;5080831;28;20028;-76
2021/07/23 09:19:08;;;;;;;9.48;5.60;;;21.80;72.90;;;;;;5087370;28;20027;-76
2021/07/23 09:21:39;;;;;;;8.15;5.15;;;21.90;71.80;;;;;;5085698;28;20033;-76
2021/07/23 09:24:09;;;;;;;10.75;6.00;;;22.00;70.70;;;;;;5085076;28;20027;-74
2021/07/23 09:26:42;;;;;;;11.77;5.50;;;22.10;70.90;;;;;;5106837;28;20011;-76
2021/07/23 09:29:09;;;;;;;9.48;5.18;;;22.20;69.80;;;;;;5109632;28;20028;-73
2021/07/23 09:31:35;;;;;;;9.32;5.53;;;22.30;71.00;;;;;;5109972;28;20024;-74
2021/07/23 09:34:03;;;;;;;7.82;4.68;;;22.30;70.70;;;;;;5098115;28;20031;-75
2021/07/23 09:36:29;;;;;;;7.07;4.22;;;22.30;69.70;;;;;;5102295;28;20028;-75
2021/07/23 09:39:04;;;;;;;8.98;4.80;;;22.30;69.60;;;;;;5106163;28;20451;-74
2021/07/23 09:41:30;;;;;;;8.68;5.03;;;22.30;71.00;;;;;;5077640;28;20043;-75
2021/07/23 09:44:08;;;;;;;8.68;4.88;;;22.30;69.70;;;;;;5088427;28;20028;-76
2021/07/23 09:46:48;;;;;;;8.57;4.72;;;22.30;69.40;;;;;;5084948;28;20388;-74
2021/07/23 09:49:28;;;;;;;9.35;5.40;;;22.40;69.20;;;;;;5078410;28;20035;-74
2021/07/23 09:51:55;;;;;;;8.10;4.68;;;22.50;68.20;;;;;;5083288;28;20032;-74
2021/07/23 09:54:22;;;;;;;7.88;4.68;;;22.60;69.20;;;;;;5112587;28;20407;-75
2021/07/23 09:56:49;;;;;;;8.80;5.00;;;22.60;69.90;;;;;;5083454;28;20073;-75
2021/07/23 09:59:49;;;;;;;9.63;5.10;;;22.60;68.40;;;;;;5091042;28;20020;-74
2021/07/23 10:02:21;;;;;;;9.63;4.82;;;22.60;67.60;;;;;;5109228;28;20073;-74
2021/07/23 10:04:50;;;;;;;6.80;4.38;;;22.70;66.90;;;;;;5090596;28;20110;-74
2021/07/23 10:07:21;;;;;;;9.48;5.03;;;22.90;66.20;;;;;;5087079;28;20036;-75
2021/07/23 10:09:50;;;;;;;8.85;4.90;;;22.90;65.40;;;;;;5087243;28;20032;-76
2021/07/23 10:12:17;;;;;;;7.60;4.60;;;23.00;65.50;;;;;;5088894;28;20028;-76
2021/07/23 10:14:46;;;;;;;7.38;4.78;;;23.00;64.30;;;;;;5087002;28;20055;-76
2021/07/23 10:17:13;;;;;;;8.38;5.20;;;23.10;64.10;;;;;;5088073;28;20020;-73
2021/07/23 10:19:39;;;;;;;6.47;4.53;;;23.00;63.50;;;;;;5086584;28;20025;-74
2021/07/23 10:22:06;;;;;;;12.48;4.80;;;23.10;63.50;;;;;;5087539;28;20024;-74
2021/07/23 10:24:36;;;;;;;7.75;5.10;;;23.10;63.50;;;;;;5084484;28;20403;-76
2021/07/23 10:27:23;;;;;;;7.53;4.88;;;23.20;67.10;;;;;;5079085;28;20457;-74
2021/07/23 10:29:54;;;;;;;9.18;5.05;;;23.30;67.30;;;;;;5082251;28;20039;-74
2021/07/23 10:32:34;;;;;;;7.47;4.60;;;23.20;66.60;;;;;;5080781;28;20476;-75
2021/07/23 10:35:20;;;;;;;7.93;4.57;;;23.40;65.20;;;;;;5081004;28;20021;-74
2021/07/23 10:37:53;;;;;;;7.40;4.85;;;23.40;64.60;;;;;;5080800;28;20035;-75
2021/07/23 10:40:33;;;;;;;8.32;4.93;;;23.30;65.10;;;;;;5082985;28;20426;-75
2021/07/23 10:42:59;;;;;;;8.60;5.10;;;23.50;64.50;;;;;;5083493;28;20040;-74
2021/07/23 10:45:41;;;;;;;9.70;5.28;;;23.50;64.90;;;;;;5085543;28;20016;-75
2021/07/23 10:48:07;;;;;;;8.38;5.00;;;23.50;64.90;;;;;;5083141;28;20024;-76
2021/07/23 10:50:38;;;;;;;8.43;5.03;;;23.60;64.00;;;;;;5083395;28;20354;-76
2021/07/23 10:53:31;;;;;;;8.05;4.85;;;23.60;64.20;;;;;;5092870;28;20049;-75
2021/07/23 10:55:57;;;;;;;18.05;5.15;;;23.70;64.40;;;;;;5078610;28;20024;-75
2021/07/23 10:58:22;;;;;;;10.40;5.30;;;23.70;64.90;;;;;;5085040;28;20029;-76
2021/07/23 11:00:53;;;;;;;8.20;4.93;;;23.80;64.20;;;;;;5085785;28;20047;-77
2021/07/23 11:03:45;;;;;;;8.75;5.20;;;23.80;63.40;;;;;;5078351;28;20017;-74
2021/07/23 11:06:22;;;;;;;9.90;4.70;;;24.00;63.50;;;;;;5086477;28;20078;-75
2021/07/23 11:08:52;;;;;;;8.43;5.10;;;24.00;63.60;;;;;;5102066;28;20052;-74
2021/07/23 11:11:19;;;;;;;7.88;4.80;;;24.00;62.50;;;;;;5086967;28;20096;-78
2021/07/23 11:13:46;;;;;;;7.85;4.78;;;24.00;64.60;;;;;;5085504;28;20465;-74
2021/07/23 11:16:19;;;;;;;10.15;5.30;;;24.10;63.40;;;;;;5073021;28;20024;-74
2021/07/23 11:18:56;;;;;;;9.35;5.15;;;24.10;62.70;;;;;;5081413;28;20128;-75
2021/07/23 11:21:31;;;;;;;7.78;5.13;;;24.30;62.30;;;;;;5093819;28;20054;-75
2021/07/23 11:23:57;;;;;;;8.00;5.30;;;24.30;60.10;;;;;;5114942;28;20027;-75
2021/07/23 11:26:24;;;;;;;7.80;5.10;;;24.50;61.50;;;;;;5105736;28;20032;-75
2021/07/23 11:28:53;;;;;;;6.10;4.57;;;24.50;61.60;;;;;;5088903;28;20024;-75
2021/07/23 11:31:36;;;;;;;7.55;4.88;;;24.50;61.80;;;;;;5079785;28;20165;-76
2021/07/23 11:34:23;;;;;;;9.38;5.00;;;24.60;61.40;;;;;;5096402;28;20040;-75
2021/07/23 11:36:50;;;;;;;9.02;5.35;;;24.70;60.60;;;;;;5082780;28;20024;-75
2021/07/23 11:39:16;;;;;;;7.97;5.38;;;24.70;60.10;;;;;;5093130;28;20036;-76
2021/07/23 11:42:06;;;;;;;8.40;4.80;;;24.70;59.30;;;;;;5082619;28;20464;-75
2021/07/23 11:44:32;;;;;;;11.55;5.15;;;24.80;59.30;;;;;;5086011;28;20028;-75
2021/07/23 11:46:58;;;;;;;8.27;5.05;;;24.90;59.70;;;;;;5089832;28;20031;-75
2021/07/23 11:49:31;;;;;;;9.55;5.50;;;24.90;58.90;;;;;;5082296;28;20111;-76
2021/07/23 11:51:57;;;;;;;7.68;5.38;;;25.00;58.30;;;;;;5085935;28;20032;-77
2021/07/23 11:54:24;;;;;;;8.55;5.00;;;25.10;58.40;;;;;;5092265;28;20088;-77
2021/07/23 11:56:49;;;;;;;8.00;5.35;;;25.10;57.70;;;;;;5089721;28;20024;-77
2021/07/23 11:59:15;;;;;;;9.18;5.45;;;25.10;58.80;;;;;;5086185;28;20386;-77
2021/07/23 12:01:42;;;;;;;9.23;5.47;;;25.20;59.60;;;;;;5092270;28;20405;-76
2021/07/23 12:04:08;;;;;;;7.80;4.80;;;25.20;58.20;;;;;;5083192;28;20076;-77
2021/07/23 12:06:39;;;;;;;10.10;5.82;;;25.20;58.00;;;;;;5084866;28;20039;-74
2021/07/23 12:09:09;;;;;;;;;;;25.30;57.90;;;;;;5076034;28;20032;-74
2021/07/23 12:11:35;;;;;;;8.65;5.32;;;25.40;56.20;;;;;;5075768;28;19978;-75
2021/07/23 12:14:13;;;;;;;9.75;5.50;;;25.40;56.80;;;;;;5081424;28;20040;-74
2021/07/23 12:16:39;;;;;;;9.70;5.25;;;25.40;58.70;;;;;;5084569;28;20024;-74
2021/07/23 12:19:09;;;;;;;8.63;5.60;;;25.50;56.40;;;;;;5108414;28;20235;-74
2021/07/23 12:21:36;;;;;;;7.50;5.35;;;25.60;56.10;;;;;;5093380;28;20027;-74
2021/07/23 12:24:06;;;;;;;8.38;5.10;;;25.60;56.40;;;;;;5076416;28;20028;-74
2021/07/23 12:26:40;;;;;;;11.02;5.05;;;25.60;56.60;;;;;;5075764;28;20036;-74
2021/07/23 12:29:10;;;;;;;9.60;5.88;;;25.80;59.10;;;;;;5108661;28;20026;-74
2021/07/23 12:31:39;;;;;;;12.25;5.68;;;25.90;57.50;;;;;;5094918;28;20104;-74
2021/07/23 12:34:09;;;;;;;6.88;5.03;;;25.90;57.40;;;;;;5088440;28;20035;-74
2021/07/23 12:36:48;;;;;;;8.85;5.55;;;25.90;55.70;;;;;;5085920;28;20020;-73
2021/07/23 12:39:14;;;;;;;8.18;4.93;;;26.00;55.40;;;;;;5079501;28;20396;-74
2021/07/23 12:41:41;;;;;;;7.80;5.18;;;26.00;55.20;;;;;;5091362;28;20032;-74